Terminal Aerodrome Forecast
Issued by NWS

Home | Current Version | Previous Version | Text Only | Print | Product List | Glossary On
Versions: 1 2 3 4 5 6 7 8 9 10 11 12 13 14 15
000
FTUS42 KTBW 280520
TAFRSW
TAF
KRSW 280520Z 2806/2906 05006KT P6SM SCT150 SCT250
     FM281500 08010G15KT P6SM VCTS FEW025CB SCT250
     FM281800 08013G20KT P6SM VCTS BKN035CB BKN100
     FM290100 07010KT P6SM VCSH SCT030 BKN080 OVC150=

USA.gov is the U.S. government's official web portal to all federal, state and local government web resources and services.